sensor_id;sensor_type;location;lat;lon;timestamp;temperature;humidity
26721;HTU21D;15950;51.112;6.966;2024-02-16T00:02:02;12.98;73.21
26721;HTU21D;15950;51.112;6.966;2024-02-16T00:04:59;12.95;73.20
26721;HTU21D;15950;51.112;6.966;2024-02-16T00:07:59;12.92;73.40
26721;HTU21D;15950;51.112;6.966;2024-02-16T00:10:59;12.98;73.18
26721;HTU21D;15950;51.112;6.966;2024-02-16T00:13:59;12.97;73.24
26721;HTU21D;15950;51.112;6.966;2024-02-16T00:16:59;12.90;73.41
26721;HTU21D;15950;51.112;6.966;2024-02-16T00:19:59;12.94;73.35
26721;HTU21D;15950;51.112;6.966;2024-02-16T00:22:59;13.01;72.91
26721;HTU21D;15950;51.112;6.966;2024-02-16T00:25:59;13.00;73.15
26721;HTU21D;15950;51.112;6.966;2024-02-16T00:28:59;13.01;73.12
26721;HTU21D;15950;51.112;6.966;2024-02-16T00:31:59;12.94;73.20
26721;HTU21D;15950;51.112;6.966;2024-02-16T00:34:59;12.96;73.32
26721;HTU21D;15950;51.112;6.966;2024-02-16T00:37:59;12.96;73.29
26721;HTU21D;15950;51.112;6.966;2024-02-16T00:40:59;13.01;73.06
26721;HTU21D;15950;51.112;6.966;2024-02-16T00:43:59;13.03;73.08
26721;HTU21D;15950;51.112;6.966;2024-02-16T00:46:59;13.03;73.06
26721;HTU21D;15950;51.112;6.966;2024-02-16T00:49:59;13.09;72.83
26721;HTU21D;15950;51.112;6.966;2024-02-16T00:52:59;13.08;72.58
26721;HTU21D;15950;51.112;6.966;2024-02-16T00:55:59;13.05;72.90
26721;HTU21D;15950;51.112;6.966;2024-02-16T00:58:59;13.05;72.80
26721;HTU21D;15950;51.112;6.966;2024-02-16T01:01:59;13.05;72.96
26721;HTU21D;15950;51.112;6.966;2024-02-16T01:04:59;13.05;73.15
26721;HTU21D;15950;51.112;6.966;2024-02-16T01:07:59;13.10;72.74
26721;HTU21D;15950;51.112;6.966;2024-02-16T01:10:59;13.04;72.99
26721;HTU21D;15950;51.112;6.966;2024-02-16T01:13:59;13.09;72.80
26721;HTU21D;15950;51.112;6.966;2024-02-16T01:16:59;13.11;72.84
26721;HTU21D;15950;51.112;6.966;2024-02-16T01:19:59;13.07;72.96
26721;HTU21D;15950;51.112;6.966;2024-02-16T01:22:59;13.03;73.22
26721;HTU21D;15950;51.112;6.966;2024-02-16T01:25:59;13.02;73.26
26721;HTU21D;15950;51.112;6.966;2024-02-16T01:28:59;12.97;73.03
26721;HTU21D;15950;51.112;6.966;2024-02-16T01:31:59;13.04;73.00
26721;HTU21D;15950;51.112;6.966;2024-02-16T01:34:59;13.08;72.83
26721;HTU21D;15950;51.112;6.966;2024-02-16T01:37:59;13.13;72.79
26721;HTU21D;15950;51.112;6.966;2024-02-16T01:40:59;13.12;72.49
26721;HTU21D;15950;51.112;6.966;2024-02-16T01:43:59;13.09;72.61
26721;HTU21D;15950;51.112;6.966;2024-02-16T01:46:59;13.14;72.47
26721;HTU21D;15950;51.112;6.966;2024-02-16T01:49:58;13.09;72.49
26721;HTU21D;15950;51.112;6.966;2024-02-16T01:52:59;13.13;72.34
26721;HTU21D;15950;51.112;6.966;2024-02-16T01:55:59;13.13;72.51
26721;HTU21D;15950;51.112;6.966;2024-02-16T01:58:59;13.15;72.26
26721;HTU21D;15950;51.112;6.966;2024-02-16T02:01:59;13.22;71.91
26721;HTU21D;15950;51.112;6.966;2024-02-16T02:04:58;13.16;72.06
26721;HTU21D;15950;51.112;6.966;2024-02-16T02:07:59;13.20;71.80
26721;HTU21D;15950;51.112;6.966;2024-02-16T02:10:58;13.22;71.73
26721;HTU21D;15950;51.112;6.966;2024-02-16T02:13:59;13.21;71.92
26721;HTU21D;15950;51.112;6.966;2024-02-16T02:16:59;13.17;72.03
26721;HTU21D;15950;51.112;6.966;2024-02-16T02:19:59;13.21;71.86
26721;HTU21D;15950;51.112;6.966;2024-02-16T02:22:58;13.22;71.74
26721;HTU21D;15950;51.112;6.966;2024-02-16T02:25:58;13.19;71.87
26721;HTU21D;15950;51.112;6.966;2024-02-16T02:28:58;13.25;71.82
26721;HTU21D;15950;51.112;6.966;2024-02-16T02:31:59;13.22;71.85
26721;HTU21D;15950;51.112;6.966;2024-02-16T02:34:59;13.29;71.67
26721;HTU21D;15950;51.112;6.966;2024-02-16T02:37:58;13.29;71.55
26721;HTU21D;15950;51.112;6.966;2024-02-16T02:40:58;13.28;71.40
26721;HTU21D;15950;51.112;6.966;2024-02-16T02:43:58;13.30;71.19
26721;HTU21D;15950;51.112;6.966;2024-02-16T02:46:58;13.32;71.16
26721;HTU21D;15950;51.112;6.966;2024-02-16T02:49:58;13.39;71.19
26721;HTU21D;15950;51.112;6.966;2024-02-16T02:52:58;13.42;71.19
26721;HTU21D;15950;51.112;6.966;2024-02-16T02:55:58;13.35;71.51
26721;HTU21D;15950;51.112;6.966;2024-02-16T02:58:58;13.38;71.73
26721;HTU21D;15950;51.112;6.966;2024-02-16T03:01:58;13.30;72.00
26721;HTU21D;15950;51.112;6.966;2024-02-16T03:04:58;13.29;72.20
26721;HTU21D;15950;51.112;6.966;2024-02-16T03:07:59;13.31;72.35
26721;HTU21D;15950;51.112;6.966;2024-02-16T03:10:58;13.26;72.52
26721;HTU21D;15950;51.112;6.966;2024-02-16T03:13:58;13.30;73.23
26721;HTU21D;15950;51.112;6.966;2024-02-16T03:16:58;13.22;74.38
26721;HTU21D;15950;51.112;6.966;2024-02-16T03:19:58;13.10;75.02
26721;HTU21D;15950;51.112;6.966;2024-02-16T03:22:58;13.00;75.48
26721;HTU21D;15950;51.112;6.966;2024-02-16T03:25:58;13.03;75.08
26721;HTU21D;15950;51.112;6.966;2024-02-16T03:28:58;13.01;75.12
26721;HTU21D;15950;51.112;6.966;2024-02-16T03:31:59;12.96;75.15
26721;HTU21D;15950;51.112;6.966;2024-02-16T03:34:58;12.96;75.38
26721;HTU21D;15950;51.112;6.966;2024-02-16T03:37:58;12.98;75.38
26721;HTU21D;15950;51.112;6.966;2024-02-16T03:40:58;12.97;75.27
26721;HTU21D;15950;51.112;6.966;2024-02-16T03:43:58;12.96;75.27
26721;HTU21D;15950;51.112;6.966;2024-02-16T03:46:58;13.00;75.07
26721;HTU21D;15950;51.112;6.966;2024-02-16T03:49:59;12.96;75.39
26721;HTU21D;15950;51.112;6.966;2024-02-16T03:52:58;12.99;75.30
26721;HTU21D;15950;51.112;6.966;2024-02-16T03:55:58;12.90;75.57
26721;HTU21D;15950;51.112;6.966;2024-02-16T03:58:58;12.96;75.47
26721;HTU21D;15950;51.112;6.966;2024-02-16T04:01:58;12.94;75.23
26721;HTU21D;15950;51.112;6.966;2024-02-16T04:04:58;12.98;75.31
26721;HTU21D;15950;51.112;6.966;2024-02-16T04:07:58;12.97;75.18
26721;HTU21D;15950;51.112;6.966;2024-02-16T04:10:58;12.98;75.21
26721;HTU21D;15950;51.112;6.966;2024-02-16T04:13:58;13.01;75.09
26721;HTU21D;15950;51.112;6.966;2024-02-16T04:16:59;13.00;75.33
26721;HTU21D;15950;51.112;6.966;2024-02-16T04:19:58;12.99;75.34
26721;HTU21D;15950;51.112;6.966;2024-02-16T04:22:59;12.96;75.38
26721;HTU21D;15950;51.112;6.966;2024-02-16T04:25:58;13.07;75.26
26721;HTU21D;15950;51.112;6.966;2024-02-16T04:28:58;13.04;75.31
26721;HTU21D;15950;51.112;6.966;2024-02-16T04:31:58;13.09;75.12
26721;HTU21D;15950;51.112;6.966;2024-02-16T04:34:59;13.12;75.06
26721;HTU21D;15950;51.112;6.966;2024-02-16T04:37:58;13.10;75.36
26721;HTU21D;15950;51.112;6.966;2024-02-16T04:40:58;13.05;75.87
26721;HTU21D;15950;51.112;6.966;2024-02-16T04:43:58;13.04;75.99
26721;HTU21D;15950;51.112;6.966;2024-02-16T04:46:58;13.07;76.00
26721;HTU21D;15950;51.112;6.966;2024-02-16T04:49:58;13.04;76.16
26721;HTU21D;15950;51.112;6.966;2024-02-16T04:52:59;13.02;76.29
26721;HTU21D;15950;51.112;6.966;2024-02-16T04:56:01;12.96;76.57
26721;HTU21D;15950;51.112;6.966;2024-02-16T04:58:58;12.96;76.70
26721;HTU21D;15950;51.112;6.966;2024-02-16T05:01:58;12.86;77.03
26721;HTU21D;15950;51.112;6.966;2024-02-16T05:04:58;12.83;77.40
26721;HTU21D;15950;51.112;6.966;2024-02-16T05:07:59;12.78;77.68
26721;HTU21D;15950;51.112;6.966;2024-02-16T05:11:00;12.79;77.78
26721;HTU21D;15950;51.112;6.966;2024-02-16T05:13:58;12.79;77.97
26721;HTU21D;15950;51.112;6.966;2024-02-16T05:16:58;12.83;77.98
26721;HTU21D;15950;51.112;6.966;2024-02-16T05:19:58;12.76;78.37
26721;HTU21D;15950;51.112;6.966;2024-02-16T05:22:58;12.73;78.40
26721;HTU21D;15950;51.112;6.966;2024-02-16T05:25:58;12.78;78.55
26721;HTU21D;15950;51.112;6.966;2024-02-16T05:28:58;12.70;78.89
26721;HTU21D;15950;51.112;6.966;2024-02-16T05:31:58;12.64;79.00
26721;HTU21D;15950;51.112;6.966;2024-02-16T05:34:58;12.67;78.95
26721;HTU21D;15950;51.112;6.966;2024-02-16T05:37:58;12.69;78.99
26721;HTU21D;15950;51.112;6.966;2024-02-16T05:40:58;12.67;78.94
26721;HTU21D;15950;51.112;6.966;2024-02-16T05:43:58;12.70;78.90
26721;HTU21D;15950;51.112;6.966;2024-02-16T05:46:58;12.57;79.05
26721;HTU21D;15950;51.112;6.966;2024-02-16T05:49:58;12.67;79.07
26721;HTU21D;15950;51.112;6.966;2024-02-16T05:52:58;12.64;79.12
26721;HTU21D;15950;51.112;6.966;2024-02-16T05:55:59;12.59;79.13
26721;HTU21D;15950;51.112;6.966;2024-02-16T05:58:59;12.62;79.08
26721;HTU21D;15950;51.112;6.966;2024-02-16T06:01:58;12.60;79.22
26721;HTU21D;15950;51.112;6.966;2024-02-16T06:05:02;12.56;79.29
26721;HTU21D;15950;51.112;6.966;2024-02-16T06:07:58;12.60;79.11
26721;HTU21D;15950;51.112;6.966;2024-02-16T06:10:58;12.59;79.30
26721;HTU21D;15950;51.112;6.966;2024-02-16T06:13:58;12.63;79.09
26721;HTU21D;15950;51.112;6.966;2024-02-16T06:16:59;12.54;79.32
26721;HTU21D;15950;51.112;6.966;2024-02-16T06:19:58;12.58;79.23
26721;HTU21D;15950;51.112;6.966;2024-02-16T06:22:58;12.62;79.22
26721;HTU21D;15950;51.112;6.966;2024-02-16T06:25:58;12.61;79.27
26721;HTU21D;15950;51.112;6.966;2024-02-16T06:28:58;12.62;79.20
26721;HTU21D;15950;51.112;6.966;2024-02-16T06:31:58;12.63;79.14
26721;HTU21D;15950;51.112;6.966;2024-02-16T06:34:58;12.61;79.01
26721;HTU21D;15950;51.112;6.966;2024-02-16T06:37:58;12.63;79.01
26721;HTU21D;15950;51.112;6.966;2024-02-16T06:40:58;12.64;78.95
26721;HTU21D;15950;51.112;6.966;2024-02-16T06:43:58;12.72;78.61
26721;HTU21D;15950;51.112;6.966;2024-02-16T06:46:58;12.68;78.51
26721;HTU21D;15950;51.112;6.966;2024-02-16T06:49:58;12.75;78.22
26721;HTU21D;15950;51.112;6.966;2024-02-16T06:52:58;12.68;78.59
26721;HTU21D;15950;51.112;6.966;2024-02-16T06:55:58;12.75;78.34
26721;HTU21D;15950;51.112;6.966;2024-02-16T06:58:58;12.79;78.09
26721;HTU21D;15950;51.112;6.966;2024-02-16T07:01:58;12.78;77.98
26721;HTU21D;15950;51.112;6.966;2024-02-16T07:04:59;12.81;77.98
26721;HTU21D;15950;51.112;6.966;2024-02-16T07:07:58;12.84;77.95
26721;HTU21D;15950;51.112;6.966;2024-02-16T07:10:59;12.85;77.74
26721;HTU21D;15950;51.112;6.966;2024-02-16T07:13:58;12.86;77.73
26721;HTU21D;15950;51.112;6.966;2024-02-16T07:16:58;12.94;77.45
26721;HTU21D;15950;51.112;6.966;2024-02-16T07:19:58;12.92;77.36
26721;HTU21D;15950;51.112;6.966;2024-02-16T07:22:58;12.95;77.31
26721;HTU21D;15950;51.112;6.966;2024-02-16T07:25:58;12.93;77.46
26721;HTU21D;15950;51.112;6.966;2024-02-16T07:28:58;12.97;77.27
26721;HTU21D;15950;51.112;6.966;2024-02-16T07:31:58;13.00;77.14
26721;HTU21D;15950;51.112;6.966;2024-02-16T07:34:59;13.01;77.12
26721;HTU21D;15950;51.112;6.966;2024-02-16T07:37:58;13.03;76.93
26721;HTU21D;15950;51.112;6.966;2024-02-16T07:40:58;13.08;76.86
26721;HTU21D;15950;51.112;6.966;2024-02-16T07:43:58;13.11;76.81
26721;HTU21D;15950;51.112;6.966;2024-02-16T07:46:58;13.12;76.76
26721;HTU21D;15950;51.112;6.966;2024-02-16T07:49:58;13.08;76.57
26721;HTU21D;15950;51.112;6.966;2024-02-16T07:52:58;13.16;76.68
26721;HTU21D;15950;51.112;6.966;2024-02-16T07:55:58;13.13;76.44
26721;HTU21D;15950;51.112;6.966;2024-02-16T07:58:58;13.20;76.26
26721;HTU21D;15950;51.112;6.966;2024-02-16T08:01:58;13.26;75.92
26721;HTU21D;15950;51.112;6.966;2024-02-16T08:04:59;13.30;75.83
26721;HTU21D;15950;51.112;6.966;2024-02-16T08:07:58;13.29;75.83
26721;HTU21D;15950;51.112;6.966;2024-02-16T08:10:58;13.34;75.53
26721;HTU21D;15950;51.112;6.966;2024-02-16T08:13:58;13.34;75.60
26721;HTU21D;15950;51.112;6.966;2024-02-16T08:16:58;13.26;75.70
26721;HTU21D;15950;51.112;6.966;2024-02-16T08:19:58;13.26;75.81
26721;HTU21D;15950;51.112;6.966;2024-02-16T08:22:58;13.30;75.69
26721;HTU21D;15950;51.112;6.966;2024-02-16T08:26:01;13.37;75.49
26721;HTU21D;15950;51.112;6.966;2024-02-16T08:29:02;13.39;75.53
26721;HTU21D;15950;51.112;6.966;2024-02-16T08:31:58;13.40;75.25
26721;HTU21D;15950;51.112;6.966;2024-02-16T08:34:58;13.41;75.31
26721;HTU21D;15950;51.112;6.966;2024-02-16T08:37:58;13.49;75.18
26721;HTU21D;15950;51.112;6.966;2024-02-16T08:40:58;13.45;75.51
26721;HTU21D;15950;51.112;6.966;2024-02-16T08:43:58;13.46;75.60
26721;HTU21D;15950;51.112;6.966;2024-02-16T08:46:58;13.59;75.08
26721;HTU21D;15950;51.112;6.966;2024-02-16T08:49:58;13.61;74.84
26721;HTU21D;15950;51.112;6.966;2024-02-16T08:52:58;13.66;75.19
26721;HTU21D;15950;51.112;6.966;2024-02-16T08:55:58;13.65;75.04
26721;HTU21D;15950;51.112;6.966;2024-02-16T08:58:58;13.65;74.91
26721;HTU21D;15950;51.112;6.966;2024-02-16T09:01:58;13.70;74.93
26721;HTU21D;15950;51.112;6.966;2024-02-16T09:04:58;13.69;74.96
26721;HTU21D;15950;51.112;6.966;2024-02-16T09:07:58;13.72;75.11
26721;HTU21D;15950;51.112;6.966;2024-02-16T09:10:59;13.78;75.14
26721;HTU21D;15950;51.112;6.966;2024-02-16T09:13:58;13.72;74.81
26721;HTU21D;15950;51.112;6.966;2024-02-16T09:16:58;13.76;74.71
26721;HTU21D;15950;51.112;6.966;2024-02-16T09:19:58;13.82;74.50
26721;HTU21D;15950;51.112;6.966;2024-02-16T09:22:58;13.78;74.46
26721;HTU21D;15950;51.112;6.966;2024-02-16T09:25:58;13.79;74.57
26721;HTU21D;15950;51.112;6.966;2024-02-16T09:28:58;13.84;74.25
26721;HTU21D;15950;51.112;6.966;2024-02-16T09:31:58;13.88;74.37
26721;HTU21D;15950;51.112;6.966;2024-02-16T09:34:58;13.88;74.31
26721;HTU21D;15950;51.112;6.966;2024-02-16T09:37:58;13.93;74.53
26721;HTU21D;15950;51.112;6.966;2024-02-16T09:40:58;13.94;74.14
26721;HTU21D;15950;51.112;6.966;2024-02-16T09:43:58;13.97;73.96
26721;HTU21D;15950;51.112;6.966;2024-02-16T09:46:59;14.08;74.23
26721;HTU21D;15950;51.112;6.966;2024-02-16T09:49:58;14.04;73.97
26721;HTU21D;15950;51.112;6.966;2024-02-16T09:52:58;14.15;74.11
26721;HTU21D;15950;51.112;6.966;2024-02-16T09:55:58;14.19;73.83
26721;HTU21D;15950;51.112;6.966;2024-02-16T09:58:58;14.27;73.54
26721;HTU21D;15950;51.112;6.966;2024-02-16T10:02:02;14.31;73.61
26721;HTU21D;15950;51.112;6.966;2024-02-16T10:04:59;14.34;73.44
26721;HTU21D;15950;51.112;6.966;2024-02-16T10:07:58;14.33;73.28
26721;HTU21D;15950;51.112;6.966;2024-02-16T10:11:04;14.28;73.63
26721;HTU21D;15950;51.112;6.966;2024-02-16T10:14:00;14.25;73.86
26721;HTU21D;15950;51.112;6.966;2024-02-16T10:17:03;14.30;73.80
26721;HTU21D;15950;51.112;6.966;2024-02-16T10:19:59;14.22;74.12
26721;HTU21D;15950;51.112;6.966;2024-02-16T10:23:07;14.30;74.15
26721;HTU21D;15950;51.112;6.966;2024-02-16T10:25:58;14.28;74.19
26721;HTU21D;15950;51.112;6.966;2024-02-16T10:28:58;14.31;74.11
26721;HTU21D;15950;51.112;6.966;2024-02-16T10:31:58;14.35;74.48
26721;HTU21D;15950;51.112;6.966;2024-02-16T10:34:58;14.45;74.43
26721;HTU21D;15950;51.112;6.966;2024-02-16T10:38:00;14.34;74.51
26721;HTU21D;15950;51.112;6.966;2024-02-16T10:40:59;14.36;74.80
26721;HTU21D;15950;51.112;6.966;2024-02-16T10:43:58;14.36;74.73
26721;HTU21D;15950;51.112;6.966;2024-02-16T10:46:59;14.35;74.89
26721;HTU21D;15950;51.112;6.966;2024-02-16T10:49:58;14.31;75.16
26721;HTU21D;15950;51.112;6.966;2024-02-16T10:53:09;14.23;75.64
26721;HTU21D;15950;51.112;6.966;2024-02-16T10:55:59;14.19;76.07
26721;HTU21D;15950;51.112;6.966;2024-02-16T10:59:04;14.13;76.00
26721;HTU21D;15950;51.112;6.966;2024-02-16T11:02:01;14.11;76.07
26721;HTU21D;15950;51.112;6.966;2024-02-16T11:04:58;14.14;76.09
26721;HTU21D;15950;51.112;6.966;2024-02-16T11:08:04;14.09;75.96
26721;HTU21D;15950;51.112;6.966;2024-02-16T11:11:00;14.11;75.86
26721;HTU21D;15950;51.112;6.966;2024-02-16T11:13:58;14.06;76.13
26721;HTU21D;15950;51.112;6.966;2024-02-16T11:16:58;14.03;76.28
26721;HTU21D;15950;51.112;6.966;2024-02-16T11:20:00;14.08;76.50
26721;HTU21D;15950;51.112;6.966;2024-02-16T11:23:08;14.03;76.79
26721;HTU21D;15950;51.112;6.966;2024-02-16T11:26:00;14.04;76.49
26721;HTU21D;15950;51.112;6.966;2024-02-16T11:28:58;14.08;76.95
26721;HTU21D;15950;51.112;6.966;2024-02-16T11:31:58;14.13;77.25
26721;HTU21D;15950;51.112;6.966;2024-02-16T11:35:06;14.05;77.34
26721;HTU21D;15950;51.112;6.966;2024-02-16T11:37:58;14.09;77.36
26721;HTU21D;15950;51.112;6.966;2024-02-16T11:40:59;14.06;77.64
26721;HTU21D;15950;51.112;6.966;2024-02-16T11:44:01;14.09;77.75
26721;HTU21D;15950;51.112;6.966;2024-02-16T11:46:59;14.11;77.90
26721;HTU21D;15950;51.112;6.966;2024-02-16T11:50:06;14.11;77.93
26721;HTU21D;15950;51.112;6.966;2024-02-16T11:52:58;14.05;78.19
26721;HTU21D;15950;51.112;6.966;2024-02-16T11:55:58;14.02;78.34
26721;HTU21D;15950;51.112;6.966;2024-02-16T11:58:58;13.95;78.71
26721;HTU21D;15950;51.112;6.966;2024-02-16T12:01:59;13.99;78.85
26721;HTU21D;15950;51.112;6.966;2024-02-16T12:04:59;13.98;78.90
26721;HTU21D;15950;51.112;6.966;2024-02-16T12:07:58;13.99;79.01
26721;HTU21D;15950;51.112;6.966;2024-02-16T12:10:58;13.97;79.14
26721;HTU21D;15950;51.112;6.966;2024-02-16T12:13:59;13.89;79.59
26721;HTU21D;15950;51.112;6.966;2024-02-16T12:16:58;13.98;79.27
26721;HTU21D;15950;51.112;6.966;2024-02-16T12:19:58;13.86;79.59
26721;HTU21D;15950;51.112;6.966;2024-02-16T12:22:58;13.97;79.71
26721;HTU21D;15950;51.112;6.966;2024-02-16T12:25:59;13.95;79.82
26721;HTU21D;15950;51.112;6.966;2024-02-16T12:28:58;13.96;79.96
26721;HTU21D;15950;51.112;6.966;2024-02-16T12:31:58;13.91;80.55
26721;HTU21D;15950;51.112;6.966;2024-02-16T12:34:58;13.89;81.90
26721;HTU21D;15950;51.112;6.966;2024-02-16T12:37:58;13.56;84.86
26721;HTU21D;15950;51.112;6.966;2024-02-16T12:40:58;13.51;86.48
26721;HTU21D;15950;51.112;6.966;2024-02-16T12:43:58;13.57;86.66
26721;HTU21D;15950;51.112;6.966;2024-02-16T12:46:58;13.49;87.50
26721;HTU21D;15950;51.112;6.966;2024-02-16T12:49:58;13.40;88.51
26721;HTU21D;15950;51.112;6.966;2024-02-16T12:52:58;13.38;89.79
26721;HTU21D;15950;51.112;6.966;2024-02-16T12:55:58;13.30;90.54
26721;HTU21D;15950;51.112;6.966;2024-02-16T12:58:58;13.24;91.29
26721;HTU21D;15950;51.112;6.966;2024-02-16T13:01:58;13.08;92.19
26721;HTU21D;15950;51.112;6.966;2024-02-16T13:04:58;13.16;92.23
26721;HTU21D;15950;51.112;6.966;2024-02-16T13:07:58;13.11;92.59
26721;HTU21D;15950;51.112;6.966;2024-02-16T13:10:58;13.17;92.28
26721;HTU21D;15950;51.112;6.966;2024-02-16T13:13:58;13.20;92.50
26721;HTU21D;15950;51.112;6.966;2024-02-16T13:20:36;13.52;90.91
26721;HTU21D;15950;51.112;6.966;2024-02-16T13:23:36;13.75;89.66
26721;HTU21D;15950;51.112;6.966;2024-02-16T13:26:36;13.83;89.01
26721;HTU21D;15950;51.112;6.966;2024-02-16T13:29:36;14.03;88.26
26721;HTU21D;15950;51.112;6.966;2024-02-16T13:32:36;13.94;88.30
26721;HTU21D;15950;51.112;6.966;2024-02-16T13:35:36;13.82;89.32
26721;HTU21D;15950;51.112;6.966;2024-02-16T13:38:36;13.74;89.82
26721;HTU21D;15950;51.112;6.966;2024-02-16T13:41:36;13.60;90.92
26721;HTU21D;15950;51.112;6.966;2024-02-16T13:44:36;13.56;91.45
26721;HTU21D;15950;51.112;6.966;2024-02-16T13:47:36;13.47;91.85
26721;HTU21D;15950;51.112;6.966;2024-02-16T13:50:36;13.50;92.00
26721;HTU21D;15950;51.112;6.966;2024-02-16T13:53:36;13.51;92.09
26721;HTU21D;15950;51.112;6.966;2024-02-16T13:56:36;13.61;91.45
26721;HTU21D;15950;51.112;6.966;2024-02-16T13:59:36;13.60;91.33
26721;HTU21D;15950;51.112;6.966;2024-02-16T14:02:36;13.59;91.34
26721;HTU21D;15950;51.112;6.966;2024-02-16T14:05:39;13.72;91.05
26721;HTU21D;15950;51.112;6.966;2024-02-16T14:08:36;13.75;90.76
26721;HTU21D;15950;51.112;6.966;2024-02-16T14:11:36;13.60;91.90
26721;HTU21D;15950;51.112;6.966;2024-02-16T14:14:36;13.70;90.98
26721;HTU21D;15950;51.112;6.966;2024-02-16T14:17:36;13.73;90.87
26721;HTU21D;15950;51.112;6.966;2024-02-16T14:20:36;13.83;90.15
26721;HTU21D;15950;51.112;6.966;2024-02-16T14:23:36;13.79;90.64
26721;HTU21D;15950;51.112;6.966;2024-02-16T14:26:36;13.66;91.35
26721;HTU21D;15950;51.112;6.966;2024-02-16T14:29:36;13.66;91.45
26721;HTU21D;15950;51.112;6.966;2024-02-16T14:32:36;13.48;92.03
26721;HTU21D;15950;51.112;6.966;2024-02-16T14:35:36;13.47;92.64
26721;HTU21D;15950;51.112;6.966;2024-02-16T14:38:36;13.54;92.66
26721;HTU21D;15950;51.112;6.966;2024-02-16T14:41:36;13.66;92.08
26721;HTU21D;15950;51.112;6.966;2024-02-16T14:44:36;13.60;92.50
26721;HTU21D;15950;51.112;6.966;2024-02-16T14:47:36;13.60;93.30
26721;HTU21D;15950;51.112;6.966;2024-02-16T14:50:36;13.56;93.52
26721;HTU21D;15950;51.112;6.966;2024-02-16T14:53:36;13.51;94.37
26721;HTU21D;15950;51.112;6.966;2024-02-16T14:56:36;13.48;94.69
26721;HTU21D;15950;51.112;6.966;2024-02-16T14:59:36;13.42;94.94
26721;HTU21D;15950;51.112;6.966;2024-02-16T15:02:36;13.53;94.72
26721;HTU21D;15950;51.112;6.966;2024-02-16T15:05:36;13.49;94.55
26721;HTU21D;15950;51.112;6.966;2024-02-16T15:08:36;13.55;94.50
26721;HTU21D;15950;51.112;6.966;2024-02-16T15:11:36;13.65;94.32
26721;HTU21D;15950;51.112;6.966;2024-02-16T15:14:36;13.71;93.50
26721;HTU21D;15950;51.112;6.966;2024-02-16T15:17:36;13.73;93.54
26721;HTU21D;15950;51.112;6.966;2024-02-16T15:20:36;13.58;94.07
26721;HTU21D;15950;51.112;6.966;2024-02-16T15:23:36;13.64;93.80
26721;HTU21D;15950;51.112;6.966;2024-02-16T15:26:36;13.68;93.59
26721;HTU21D;15950;51.112;6.966;2024-02-16T15:29:36;13.58;93.70
26721;HTU21D;15950;51.112;6.966;2024-02-16T15:32:36;13.62;94.10
26721;HTU21D;15950;51.112;6.966;2024-02-16T15:35:36;13.70;93.59
26721;HTU21D;15950;51.112;6.966;2024-02-16T15:38:36;13.71;93.24
26721;HTU21D;15950;51.112;6.966;2024-02-16T15:41:36;13.56;94.01
26721;HTU21D;15950;51.112;6.966;2024-02-16T15:44:36;13.49;94.11
26721;HTU21D;15950;51.112;6.966;2024-02-16T15:47:36;13.56;93.88
26721;HTU21D;15950;51.112;6.966;2024-02-16T15:50:37;13.44;94.17
26721;HTU21D;15950;51.112;6.966;2024-02-16T15:53:36;13.33;94.75
26721;HTU21D;15950;51.112;6.966;2024-02-16T15:56:36;13.03;95.68
26721;HTU21D;15950;51.112;6.966;2024-02-16T15:59:36;13.06;95.50
26721;HTU21D;15950;51.112;6.966;2024-02-16T16:02:36;13.01;95.69
26721;HTU21D;15950;51.112;6.966;2024-02-16T16:05:36;13.06;95.59
26721;HTU21D;15950;51.112;6.966;2024-02-16T16:08:36;13.24;94.40
26721;HTU21D;15950;51.112;6.966;2024-02-16T16:11:36;13.17;94.64
26721;HTU21D;15950;51.112;6.966;2024-02-16T16:14:39;13.16;94.70
26721;HTU21D;15950;51.112;6.966;2024-02-16T16:17:37;13.16;94.23
26721;HTU21D;15950;51.112;6.966;2024-02-16T16:20:36;13.29;93.62
26721;HTU21D;15950;51.112;6.966;2024-02-16T16:23:39;13.28;93.85
26721;HTU21D;15950;51.112;6.966;2024-02-16T16:26:39;13.09;94.36
26721;HTU21D;15950;51.112;6.966;2024-02-16T16:29:36;13.20;93.98
26721;HTU21D;15950;51.112;6.966;2024-02-16T16:32:36;13.20;93.81
26721;HTU21D;15950;51.112;6.966;2024-02-16T16:35:39;13.34;93.41
26721;HTU21D;15950;51.112;6.966;2024-02-16T16:38:35;13.22;93.49
26721;HTU21D;15950;51.112;6.966;2024-02-16T16:41:36;13.32;93.27
26721;HTU21D;15950;51.112;6.966;2024-02-16T16:44:35;13.28;92.71
26721;HTU21D;15950;51.112;6.966;2024-02-16T16:47:35;13.35;92.49
26721;HTU21D;15950;51.112;6.966;2024-02-16T16:50:36;13.34;92.92
26721;HTU21D;15950;51.112;6.966;2024-02-16T16:53:35;13.24;93.24
26721;HTU21D;15950;51.112;6.966;2024-02-16T16:56:35;13.29;92.71
26721;HTU21D;15950;51.112;6.966;2024-02-16T16:59:36;13.46;92.07
26721;HTU21D;15950;51.112;6.966;2024-02-16T17:02:35;13.37;92.18
26721;HTU21D;15950;51.112;6.966;2024-02-16T17:05:36;13.31;92.44
26721;HTU21D;15950;51.112;6.966;2024-02-16T17:08:35;13.26;92.28
26721;HTU21D;15950;51.112;6.966;2024-02-16T17:11:36;13.32;91.91
26721;HTU21D;15950;51.112;6.966;2024-02-16T17:14:35;13.28;91.98
26721;HTU21D;15950;51.112;6.966;2024-02-16T17:17:35;13.05;92.60
26721;HTU21D;15950;51.112;6.966;2024-02-16T17:20:35;13.10;92.24
26721;HTU21D;15950;51.112;6.966;2024-02-16T17:23:35;13.05;92.53
26721;HTU21D;15950;51.112;6.966;2024-02-16T17:26:35;12.95;92.79
26721;HTU21D;15950;51.112;6.966;2024-02-16T17:29:36;12.95;92.13
26721;HTU21D;15950;51.112;6.966;2024-02-16T17:32:35;12.79;92.54
26721;HTU21D;15950;51.112;6.966;2024-02-16T17:35:35;12.89;92.32
26721;HTU21D;15950;51.112;6.966;2024-02-16T17:38:35;12.86;92.25
26721;HTU21D;15950;51.112;6.966;2024-02-16T17:41:35;12.67;92.26
26721;HTU21D;15950;51.112;6.966;2024-02-16T17:44:35;12.71;92.27
26721;HTU21D;15950;51.112;6.966;2024-02-16T17:47:36;12.64;92.26
26721;HTU21D;15950;51.112;6.966;2024-02-16T17:50:35;12.75;92.16
26721;HTU21D;15950;51.112;6.966;2024-02-16T17:53:35;12.64;92.32
26721;HTU21D;15950;51.112;6.966;2024-02-16T17:56:35;12.72;92.05
26721;HTU21D;15950;51.112;6.966;2024-02-16T17:59:35;12.71;92.12
26721;HTU21D;15950;51.112;6.966;2024-02-16T18:02:35;12.85;91.48
26721;HTU21D;15950;51.112;6.966;2024-02-16T18:05:35;12.90;91.47
26721;HTU21D;15950;51.112;6.966;2024-02-16T18:08:35;12.85;91.00
26721;HTU21D;15950;51.112;6.966;2024-02-16T18:11:35;12.52;91.96
26721;HTU21D;15950;51.112;6.966;2024-02-16T18:14:35;12.75;91.56
26721;HTU21D;15950;51.112;6.966;2024-02-16T18:17:35;12.61;91.55
26721;HTU21D;15950;51.112;6.966;2024-02-16T18:20:35;12.54;91.47
26721;HTU21D;15950;51.112;6.966;2024-02-16T18:23:35;12.36;91.89
26721;HTU21D;15950;51.112;6.966;2024-02-16T18:26:35;12.07;90.82
26721;HTU21D;15950;51.112;6.966;2024-02-16T18:29:35;12.15;90.30
26721;HTU21D;15950;51.112;6.966;2024-02-16T18:32:35;11.99;90.12
26721;HTU21D;15950;51.112;6.966;2024-02-16T18:35:35;12.08;90.23
26721;HTU21D;15950;51.112;6.966;2024-02-16T18:38:35;11.91;89.67
26721;HTU21D;15950;51.112;6.966;2024-02-16T18:41:35;11.99;89.66